sensor_id;sensor_type;location;lat;lon;timestamp;P1;durP1;ratioP1;P2;durP2;ratioP2
11655;SDS011;5884;43.618;1.438;2023-03-01T05:46:28;23.50;;;14.03;;
11655;SDS011;5884;43.618;1.438;2023-03-01T05:48:56;23.53;;;14.50;;
11655;SDS011;5884;43.618;1.438;2023-03-01T05:51:23;21.40;;;14.30;;
11655;SDS011;5884;43.618;1.438;2023-03-01T05:53:51;22.53;;;13.90;;
11655;SDS011;5884;43.618;1.438;2023-03-01T05:56:18;23.63;;;14.90;;
11655;SDS011;5884;43.618;1.438;2023-03-01T05:58:47;22.30;;;14.13;;
11655;SDS011;5884;43.618;1.438;2023-03-01T06:01:15;24.57;;;14.93;;
11655;SDS011;5884;43.618;1.438;2023-03-01T06:03:43;22.50;;;14.30;;
11655;SDS011;5884;43.618;1.438;2023-03-01T06:06:11;23.53;;;14.40;;
11655;SDS011;5884;43.618;1.438;2023-03-01T06:08:38;21.70;;;13.93;;
11655;SDS011;5884;43.618;1.438;2023-03-01T06:11:05;21.60;;;13.97;;
11655;SDS011;5884;43.618;1.438;2023-03-01T06:13:33;24.07;;;14.50;;
11655;SDS011;5884;43.618;1.438;2023-03-01T06:16:00;21.73;;;14.27;;
11655;SDS011;5884;43.618;1.438;2023-03-01T06:18:29;28.77;;;14.53;;
11655;SDS011;5884;43.618;1.438;2023-03-01T06:20:58;21.23;;;14.00;;
11655;SDS011;5884;43.618;1.438;2023-03-01T06:23:26;22.63;;;13.60;;
11655;SDS011;5884;43.618;1.438;2023-03-01T06:25:53;23.23;;;13.87;;
11655;SDS011;5884;43.618;1.438;2023-03-01T06:28:21;20.77;;;13.73;;
11655;SDS011;5884;43.618;1.438;2023-03-01T06:30:49;22.23;;;13.70;;
11655;SDS011;5884;43.618;1.438;2023-03-01T06:33:17;21.83;;;14.43;;
11655;SDS011;5884;43.618;1.438;2023-03-01T06:35:45;20.97;;;14.53;;
11655;SDS011;5884;43.618;1.438;2023-03-01T06:38:14;22.53;;;14.40;;
11655;SDS011;5884;43.618;1.438;2023-03-01T06:40:43;24.67;;;14.33;;
11655;SDS011;5884;43.618;1.438;2023-03-01T06:43:11;22.13;;;13.83;;
11655;SDS011;5884;43.618;1.438;2023-03-01T06:45:38;20.33;;;14.43;;
11655;SDS011;5884;43.618;1.438;2023-03-01T06:48:06;20.67;;;14.17;;
11655;SDS011;5884;43.618;1.438;2023-03-01T06:50:34;22.87;;;14.40;;
11655;SDS011;5884;43.618;1.438;2023-03-01T06:53:02;23.73;;;14.87;;
11655;SDS011;5884;43.618;1.438;2023-03-01T06:55:31;22.83;;;14.43;;
11655;SDS011;5884;43.618;1.438;2023-03-01T06:57:59;21.23;;;14.83;;
11655;SDS011;5884;43.618;1.438;2023-03-01T07:00:28;21.00;;;13.47;;
11655;SDS011;5884;43.618;1.438;2023-03-01T07:02:58;22.93;;;13.70;;
11655;SDS011;5884;43.618;1.438;2023-03-01T07:05:27;19.93;;;13.47;;
11655;SDS011;5884;43.618;1.438;2023-03-01T07:07:54;21.87;;;14.27;;
11655;SDS011;5884;43.618;1.438;2023-03-01T07:10:22;21.73;;;13.57;;
11655;SDS011;5884;43.618;1.438;2023-03-01T07:12:50;19.10;;;13.53;;
11655;SDS011;5884;43.618;1.438;2023-03-01T07:15:21;22.17;;;14.27;;
11655;SDS011;5884;43.618;1.438;2023-03-01T07:17:48;20.33;;;13.30;;
11655;SDS011;5884;43.618;1.438;2023-03-01T07:20:16;20.27;;;13.70;;
11655;SDS011;5884;43.618;1.438;2023-03-01T07:22:44;22.90;;;13.60;;
11655;SDS011;5884;43.618;1.438;2023-03-01T07:25:11;20.40;;;13.67;;
11655;SDS011;5884;43.618;1.438;2023-03-01T07:27:38;19.57;;;13.20;;
11655;SDS011;5884;43.618;1.438;2023-03-01T07:30:08;21.33;;;13.53;;
11655;SDS011;5884;43.618;1.438;2023-03-01T07:32:36;21.73;;;12.97;;
11655;SDS011;5884;43.618;1.438;2023-03-01T07:35:04;18.40;;;12.93;;
11655;SDS011;5884;43.618;1.438;2023-03-01T07:37:32;21.63;;;13.10;;
11655;SDS011;5884;43.618;1.438;2023-03-01T07:39:59;19.67;;;14.63;;
11655;SDS011;5884;43.618;1.438;2023-03-01T07:42:27;41.83;;;25.50;;
11655;SDS011;5884;43.618;1.438;2023-03-01T07:44:54;69.77;;;33.50;;
11655;SDS011;5884;43.618;1.438;2023-03-01T07:47:22;34.17;;;20.30;;
11655;SDS011;5884;43.618;1.438;2023-03-01T07:49:50;23.90;;;14.27;;
11655;SDS011;5884;43.618;1.438;2023-03-01T07:52:17;25.00;;;14.53;;
11655;SDS011;5884;43.618;1.438;2023-03-01T07:54:44;28.00;;;17.57;;
11655;SDS011;5884;43.618;1.438;2023-03-01T07:57:11;23.87;;;17.60;;
11655;SDS011;5884;43.618;1.438;2023-03-01T07:59:38;20.83;;;14.50;;
11655;SDS011;5884;43.618;1.438;2023-03-01T08:02:06;19.53;;;12.80;;
11655;SDS011;5884;43.618;1.438;2023-03-01T08:04:36;24.67;;;13.27;;
11655;SDS011;5884;43.618;1.438;2023-03-01T08:07:04;19.40;;;14.03;;
11655;SDS011;5884;43.618;1.438;2023-03-01T08:09:34;20.30;;;13.30;;
11655;SDS011;5884;43.618;1.438;2023-03-01T08:12:02;19.97;;;14.03;;
11655;SDS011;5884;43.618;1.438;2023-03-01T08:14:30;21.00;;;14.17;;
11655;SDS011;5884;43.618;1.438;2023-03-01T08:16:58;22.60;;;14.20;;
11655;SDS011;5884;43.618;1.438;2023-03-01T08:19:28;19.80;;;13.77;;
11655;SDS011;5884;43.618;1.438;2023-03-01T08:21:57;20.97;;;14.13;;
11655;SDS011;5884;43.618;1.438;2023-03-01T08:24:25;20.37;;;14.27;;
11655;SDS011;5884;43.618;1.438;2023-03-01T08:26:52;21.97;;;15.50;;
11655;SDS011;5884;43.618;1.438;2023-03-01T08:29:20;21.13;;;14.27;;
11655;SDS011;5884;43.618;1.438;2023-03-01T08:31:47;22.33;;;14.07;;
11655;SDS011;5884;43.618;1.438;2023-03-01T08:34:15;23.20;;;14.57;;
11655;SDS011;5884;43.618;1.438;2023-03-01T08:36:44;17.90;;;13.17;;
11655;SDS011;5884;43.618;1.438;2023-03-01T08:39:15;20.03;;;13.90;;
11655;SDS011;5884;43.618;1.438;2023-03-01T08:41:44;22.43;;;13.20;;
11655;SDS011;5884;43.618;1.438;2023-03-01T08:44:12;20.17;;;14.20;;
11655;SDS011;5884;43.618;1.438;2023-03-01T08:46:43;21.50;;;14.20;;
11655;SDS011;5884;43.618;1.438;2023-03-01T08:49:11;21.70;;;14.07;;
11655;SDS011;5884;43.618;1.438;2023-03-01T08:51:40;18.70;;;13.43;;
11655;SDS011;5884;43.618;1.438;2023-03-01T08:54:10;24.23;;;14.63;;
11655;SDS011;5884;43.618;1.438;2023-03-01T08:56:40;23.43;;;14.93;;
11655;SDS011;5884;43.618;1.438;2023-03-01T08:59:09;25.00;;;16.17;;
11655;SDS011;5884;43.618;1.438;2023-03-01T09:01:37;27.13;;;14.57;;
11655;SDS011;5884;43.618;1.438;2023-03-01T09:04:05;19.47;;;14.10;;
11655;SDS011;5884;43.618;1.438;2023-03-01T09:06:33;23.57;;;13.80;;
11655;SDS011;5884;43.618;1.438;2023-03-01T09:09:00;19.43;;;14.60;;
11655;SDS011;5884;43.618;1.438;2023-03-01T09:11:30;22.83;;;13.97;;
11655;SDS011;5884;43.618;1.438;2023-03-01T09:13:58;20.13;;;13.30;;
11655;SDS011;5884;43.618;1.438;2023-03-01T09:16:26;19.13;;;13.03;;
11655;SDS011;5884;43.618;1.438;2023-03-01T09:18:55;19.33;;;13.77;;
11655;SDS011;5884;43.618;1.438;2023-03-01T09:21:23;16.97;;;12.77;;
11655;SDS011;5884;43.618;1.438;2023-03-01T09:23:50;16.27;;;12.40;;
11655;SDS011;5884;43.618;1.438;2023-03-01T09:26:18;14.80;;;10.93;;
11655;SDS011;5884;43.618;1.438;2023-03-01T09:28:49;14.30;;;11.33;;
11655;SDS011;5884;43.618;1.438;2023-03-01T09:31:19;14.27;;;10.53;;
11655;SDS011;5884;43.618;1.438;2023-03-01T09:33:48;13.67;;;11.17;;
11655;SDS011;5884;43.618;1.438;2023-03-01T09:36:18;16.50;;;11.67;;
11655;SDS011;5884;43.618;1.438;2023-03-01T09:38:47;28.73;;;18.00;;
11655;SDS011;5884;43.618;1.438;2023-03-01T09:41:19;19.77;;;10.57;;
11655;SDS011;5884;43.618;1.438;2023-03-01T09:44:18;15.47;;;10.30;;
11655;SDS011;5884;43.618;1.438;2023-03-01T09:46:56;14.13;;;10.40;;
11655;SDS011;5884;43.618;1.438;2023-03-01T09:49:25;12.93;;;9.53;;
11655;SDS011;5884;43.618;1.438;2023-03-01T09:51:56;12.17;;;10.07;;
11655;SDS011;5884;43.618;1.438;2023-03-01T09:54:27;14.07;;;10.40;;
11655;SDS011;5884;43.618;1.438;2023-03-01T09:57:04;16.67;;;10.53;;
11655;SDS011;5884;43.618;1.438;2023-03-01T09:59:44;13.40;;;9.13;;
11655;SDS011;5884;43.618;1.438;2023-03-01T10:02:31;13.60;;;9.37;;
11655;SDS011;5884;43.618;1.438;2023-03-01T10:05:11;15.37;;;8.90;;
11655;SDS011;5884;43.618;1.438;2023-03-01T10:07:55;11.07;;;8.80;;
11655;SDS011;5884;43.618;1.438;2023-03-01T10:10:33;12.40;;;9.63;;
11655;SDS011;5884;43.618;1.438;2023-03-01T10:13:05;13.33;;;9.30;;
11655;SDS011;5884;43.618;1.438;2023-03-01T10:15:47;12.60;;;9.30;;
11655;SDS011;5884;43.618;1.438;2023-03-01T10:18:20;10.73;;;7.93;;
11655;SDS011;5884;43.618;1.438;2023-03-01T10:20:52;9.67;;;7.90;;
11655;SDS011;5884;43.618;1.438;2023-03-01T10:23:23;11.17;;;8.03;;
11655;SDS011;5884;43.618;1.438;2023-03-01T10:25:56;11.17;;;8.70;;
11655;SDS011;5884;43.618;1.438;2023-03-01T10:28:40;10.03;;;7.70;;
11655;SDS011;5884;43.618;1.438;2023-03-01T10:31:20;9.37;;;7.60;;
11655;SDS011;5884;43.618;1.438;2023-03-01T10:33:54;11.93;;;8.53;;
11655;SDS011;5884;43.618;1.438;2023-03-01T10:36:23;10.20;;;7.97;;
11655;SDS011;5884;43.618;1.438;2023-03-01T10:38:51;12.80;;;8.93;;
11655;SDS011;5884;43.618;1.438;2023-03-01T10:41:22;12.70;;;9.33;;
11655;SDS011;5884;43.618;1.438;2023-03-01T10:43:51;11.50;;;8.43;;
11655;SDS011;5884;43.618;1.438;2023-03-01T10:46:23;12.37;;;8.23;;
11655;SDS011;5884;43.618;1.438;2023-03-01T10:49:04;10.23;;;7.87;;
11655;SDS011;5884;43.618;1.438;2023-03-01T10:51:36;11.80;;;9.43;;
11655;SDS011;5884;43.618;1.438;2023-03-01T10:54:05;12.63;;;8.50;;
11655;SDS011;5884;43.618;1.438;2023-03-01T10:56:49;11.33;;;8.40;;
11655;SDS011;5884;43.618;1.438;2023-03-01T10:59:22;13.90;;;9.33;;
11655;SDS011;5884;43.618;1.438;2023-03-01T11:02:11;9.90;;;8.67;;
11655;SDS011;5884;43.618;1.438;2023-03-01T11:04:56;13.37;;;8.90;;
11655;SDS011;5884;43.618;1.438;2023-03-01T11:07:26;9.63;;;7.87;;
11655;SDS011;5884;43.618;1.438;2023-03-01T11:09:53;11.00;;;8.60;;
11655;SDS011;5884;43.618;1.438;2023-03-01T11:12:21;11.57;;;9.03;;
11655;SDS011;5884;43.618;1.438;2023-03-01T11:14:49;10.03;;;8.77;;
11655;SDS011;5884;43.618;1.438;2023-03-01T11:17:22;11.80;;;8.90;;
11655;SDS011;5884;43.618;1.438;2023-03-01T11:20:00;10.43;;;8.53;;
11655;SDS011;5884;43.618;1.438;2023-03-01T11:22:33;12.80;;;9.27;;
11655;SDS011;5884;43.618;1.438;2023-03-01T11:25:02;14.33;;;9.17;;
11655;SDS011;5884;43.618;1.438;2023-03-01T11:27:31;12.17;;;9.23;;
11655;SDS011;5884;43.618;1.438;2023-03-01T11:30:00;10.00;;;8.97;;
11655;SDS011;5884;43.618;1.438;2023-03-01T11:32:34;11.40;;;8.77;;
11655;SDS011;5884;43.618;1.438;2023-03-01T11:35:09;10.77;;;8.93;;
11655;SDS011;5884;43.618;1.438;2023-03-01T11:37:43;11.27;;;7.63;;
11655;SDS011;5884;43.618;1.438;2023-03-01T11:40:22;14.13;;;8.07;;
11655;SDS011;5884;43.618;1.438;2023-03-01T11:43:01;9.17;;;7.93;;
11655;SDS011;5884;43.618;1.438;2023-03-01T11:45:39;11.70;;;7.37;;
11655;SDS011;5884;43.618;1.438;2023-03-01T11:48:32;8.80;;;7.43;;
11655;SDS011;5884;43.618;1.438;2023-03-01T11:51:15;11.53;;;7.20;;
11655;SDS011;5884;43.618;1.438;2023-03-01T11:53:57;8.27;;;6.53;;
11655;SDS011;5884;43.618;1.438;2023-03-01T11:56:37;9.30;;;6.67;;
11655;SDS011;5884;43.618;1.438;2023-03-01T12:02:25;9.00;;;7.00;;
11655;SDS011;5884;43.618;1.438;2023-03-01T12:05:45;9.10;;;6.67;;
11655;SDS011;5884;43.618;1.438;2023-03-01T12:09:02;8.37;;;6.43;;
11655;SDS011;5884;43.618;1.438;2023-03-01T12:11:49;9.07;;;6.90;;
11655;SDS011;5884;43.618;1.438;2023-03-01T12:14:42;7.00;;;6.30;;
11655;SDS011;5884;43.618;1.438;2023-03-01T12:20:21;10.00;;;7.43;;
11655;SDS011;5884;43.618;1.438;2023-03-01T12:23:02;12.37;;;7.23;;
11655;SDS011;5884;43.618;1.438;2023-03-01T12:25:52;10.83;;;7.53;;
11655;SDS011;5884;43.618;1.438;2023-03-01T12:31:25;21.10;;;12.80;;
11655;SDS011;5884;43.618;1.438;2023-03-01T12:34:36;9.83;;;8.23;;
11655;SDS011;5884;43.618;1.438;2023-03-01T12:37:39;9.47;;;7.07;;
11655;SDS011;5884;43.618;1.438;2023-03-01T12:40:25;10.47;;;6.83;;
11655;SDS011;5884;43.618;1.438;2023-03-01T12:43:22;8.73;;;7.13;;
11655;SDS011;5884;43.618;1.438;2023-03-01T12:46:07;9.57;;;6.70;;
11655;SDS011;5884;43.618;1.438;2023-03-01T12:48:50;11.47;;;6.90;;
11655;SDS011;5884;43.618;1.438;2023-03-01T12:51:31;11.77;;;9.23;;
11655;SDS011;5884;43.618;1.438;2023-03-01T12:54:01;8.43;;;7.53;;
11655;SDS011;5884;43.618;1.438;2023-03-01T12:56:42;11.87;;;8.37;;
11655;SDS011;5884;43.618;1.438;2023-03-01T12:59:17;8.23;;;7.37;;
11655;SDS011;5884;43.618;1.438;2023-03-01T13:01:52;8.97;;;7.13;;
11655;SDS011;5884;43.618;1.438;2023-03-01T13:04:34;10.00;;;7.30;;
11655;SDS011;5884;43.618;1.438;2023-03-01T13:07:23;8.00;;;6.90;;
11655;SDS011;5884;43.618;1.438;2023-03-01T13:09:58;9.77;;;8.00;;
11655;SDS011;5884;43.618;1.438;2023-03-01T13:13:00;9.20;;;7.27;;
11655;SDS011;5884;43.618;1.438;2023-03-01T13:15:38;10.37;;;6.93;;
11655;SDS011;5884;43.618;1.438;2023-03-01T13:20:57;10.83;;;6.70;;
11655;SDS011;5884;43.618;1.438;2023-03-01T13:23:31;8.87;;;6.70;;
11655;SDS011;5884;43.618;1.438;2023-03-01T13:26:09;8.80;;;7.30;;
11655;SDS011;5884;43.618;1.438;2023-03-01T13:28:51;7.07;;;6.00;;
11655;SDS011;5884;43.618;1.438;2023-03-01T13:34:39;8.73;;;6.63;;
11655;SDS011;5884;43.618;1.438;2023-03-01T13:37:19;8.40;;;6.57;;
11655;SDS011;5884;43.618;1.438;2023-03-01T13:43:30;9.97;;;6.80;;
11655;SDS011;5884;43.618;1.438;2023-03-01T13:46:01;7.30;;;6.30;;
11655;SDS011;5884;43.618;1.438;2023-03-01T13:48:36;10.47;;;6.73;;
11655;SDS011;5884;43.618;1.438;2023-03-01T13:51:06;11.13;;;7.33;;
11655;SDS011;5884;43.618;1.438;2023-03-01T13:53:37;8.53;;;6.17;;
11655;SDS011;5884;43.618;1.438;2023-03-01T13:56:09;9.33;;;6.87;;
11655;SDS011;5884;43.618;1.438;2023-03-01T13:58:47;11.27;;;6.60;;
11655;SDS011;5884;43.618;1.438;2023-03-01T14:01:25;7.53;;;6.57;;
11655;SDS011;5884;43.618;1.438;2023-03-01T14:03:55;9.80;;;7.20;;
11655;SDS011;5884;43.618;1.438;2023-03-01T14:06:24;8.37;;;6.77;;
11655;SDS011;5884;43.618;1.438;2023-03-01T14:09:00;8.73;;;6.63;;
11655;SDS011;5884;43.618;1.438;2023-03-01T14:11:37;7.93;;;7.13;;
11655;SDS011;5884;43.618;1.438;2023-03-01T14:14:34;9.27;;;7.00;;
11655;SDS011;5884;43.618;1.438;2023-03-01T14:17:23;8.17;;;7.17;;
11655;SDS011;5884;43.618;1.438;2023-03-01T14:20:20;8.70;;;7.10;;
11655;SDS011;5884;43.618;1.438;2023-03-01T14:22:50;8.07;;;7.00;;
11655;SDS011;5884;43.618;1.438;2023-03-01T14:25:25;11.57;;;7.97;;
11655;SDS011;5884;43.618;1.438;2023-03-01T14:27:56;12.07;;;7.47;;
11655;SDS011;5884;43.618;1.438;2023-03-01T14:30:31;10.97;;;7.20;;
11655;SDS011;5884;43.618;1.438;2023-03-01T14:33:05;8.10;;;7.23;;
11655;SDS011;5884;43.618;1.438;2023-03-01T14:35:51;7.90;;;7.07;;
11655;SDS011;5884;43.618;1.438;2023-03-01T14:38:22;8.30;;;7.40;;
11655;SDS011;5884;43.618;1.438;2023-03-01T14:40:55;8.73;;;7.23;;
11655;SDS011;5884;43.618;1.438;2023-03-01T14:43:26;8.37;;;7.43;;
11655;SDS011;5884;43.618;1.438;2023-03-01T14:45:55;9.77;;;7.40;;
11655;SDS011;5884;43.618;1.438;2023-03-01T14:48:24;9.33;;;7.17;;
11655;SDS011;5884;43.618;1.438;2023-03-01T14:50:53;8.27;;;6.80;;
11655;SDS011;5884;43.618;1.438;2023-03-01T14:53:21;9.13;;;7.27;;
11655;SDS011;5884;43.618;1.438;2023-03-01T14:55:51;8.83;;;7.20;;
11655;SDS011;5884;43.618;1.438;2023-03-01T14:58:21;7.87;;;6.63;;
11655;SDS011;5884;43.618;1.438;2023-03-01T15:00:52;8.40;;;6.87;;
11655;SDS011;5884;43.618;1.438;2023-03-01T15:03:25;8.97;;;7.03;;
11655;SDS011;5884;43.618;1.438;2023-03-01T15:05:59;9.17;;;6.67;;
11655;SDS011;5884;43.618;1.438;2023-03-01T15:08:28;7.53;;;6.73;;
11655;SDS011;5884;43.618;1.438;2023-03-01T15:11:02;7.60;;;6.53;;
11655;SDS011;5884;43.618;1.438;2023-03-01T15:13:32;9.23;;;6.83;;
11655;SDS011;5884;43.618;1.438;2023-03-01T15:16:07;8.77;;;6.93;;
11655;SDS011;5884;43.618;1.438;2023-03-01T15:18:42;8.57;;;7.17;;
11655;SDS011;5884;43.618;1.438;2023-03-01T15:21:15;9.60;;;6.93;;
11655;SDS011;5884;43.618;1.438;2023-03-01T15:23:49;7.90;;;6.87;;
11655;SDS011;5884;43.618;1.438;2023-03-01T15:26:25;9.43;;;6.87;;
11655;SDS011;5884;43.618;1.438;2023-03-01T15:28:57;8.57;;;6.43;;
11655;SDS011;5884;43.618;1.438;2023-03-01T15:31:26;7.83;;;6.30;;
11655;SDS011;5884;43.618;1.438;2023-03-01T15:34:11;8.50;;;6.73;;
11655;SDS011;5884;43.618;1.438;2023-03-01T15:36:49;10.33;;;6.73;;
11655;SDS011;5884;43.618;1.438;2023-03-01T15:39:32;8.40;;;7.03;;
11655;SDS011;5884;43.618;1.438;2023-03-01T15:42:08;7.33;;;6.63;;
11655;SDS011;5884;43.618;1.438;2023-03-01T15:44:38;9.00;;;6.67;;
11655;SDS011;5884;43.618;1.438;2023-03-01T15:47:23;10.67;;;7.33;;
11655;SDS011;5884;43.618;1.438;2023-03-01T15:49:55;8.50;;;6.87;;
11655;SDS011;5884;43.618;1.438;2023-03-01T15:52:25;8.20;;;7.10;;
11655;SDS011;5884;43.618;1.438;2023-03-01T15:54:56;10.87;;;7.43;;
11655;SDS011;5884;43.618;1.438;2023-03-01T15:57:26;9.33;;;6.83;;
11655;SDS011;5884;43.618;1.438;2023-03-01T15:59:53;7.93;;;6.63;;
11655;SDS011;5884;43.618;1.438;2023-03-01T16:02:21;9.03;;;7.67;;
11655;SDS011;5884;43.618;1.438;2023-03-01T16:04:49;9.10;;;7.00;;
11655;SDS011;5884;43.618;1.438;2023-03-01T16:07:18;10.00;;;7.13;;
11655;SDS011;5884;43.618;1.438;2023-03-01T16:09:45;8.03;;;6.60;;
11655;SDS011;5884;43.618;1.438;2023-03-01T16:12:12;10.47;;;7.30;;
11655;SDS011;5884;43.618;1.438;2023-03-01T16:14:41;8.13;;;6.93;;
11655;SDS011;5884;43.618;1.438;2023-03-01T16:17:09;8.57;;;6.90;;
11655;SDS011;5884;43.618;1.438;2023-03-01T16:19:36;7.27;;;6.53;;
11655;SDS011;5884;43.618;1.438;2023-03-01T16:22:04;7.17;;;6.47;;
11655;SDS011;5884;43.618;1.438;2023-03-01T16:24:32;11.70;;;7.20;;
11655;SDS011;5884;43.618;1.438;2023-03-01T16:27:00;11.73;;;8.90;;
11655;SDS011;5884;43.618;1.438;2023-03-01T16:29:28;7.67;;;6.87;;
11655;SDS011;5884;43.618;1.438;2023-03-01T16:31:55;11.40;;;7.57;;
11655;SDS011;5884;43.618;1.438;2023-03-01T16:34:23;8.63;;;7.47;;
11655;SDS011;5884;43.618;1.438;2023-03-01T16:36:50;8.87;;;7.07;;
11655;SDS011;5884;43.618;1.438;2023-03-01T16:39:17;7.73;;;6.90;;
11655;SDS011;5884;43.618;1.438;2023-03-01T16:41:46;9.33;;;7.67;;
11655;SDS011;5884;43.618;1.438;2023-03-01T16:44:14;11.57;;;7.70;;
11655;SDS011;5884;43.618;1.438;2023-03-01T16:46:41;7.83;;;7.00;;
11655;SDS011;5884;43.618;1.438;2023-03-01T16:49:09;9.77;;;7.30;;
11655;SDS011;5884;43.618;1.438;2023-03-01T16:51:36;9.17;;;7.37;;
11655;SDS011;5884;43.618;1.438;2023-03-01T16:54:03;8.67;;;7.50;;
11655;SDS011;5884;43.618;1.438;2023-03-01T16:56:30;7.73;;;6.93;;
11655;SDS011;5884;43.618;1.438;2023-03-01T16:59:02;8.73;;;7.20;;
11655;SDS011;5884;43.618;1.438;2023-03-01T17:01:29;12.00;;;8.97;;
11655;SDS011;5884;43.618;1.438;2023-03-01T17:04:02;9.13;;;8.03;;
11655;SDS011;5884;43.618;1.438;2023-03-01T17:06:30;10.47;;;8.17;;
11655;SDS011;5884;43.618;1.438;2023-03-01T17:08:57;10.13;;;8.23;;
11655;SDS011;5884;43.618;1.438;2023-03-01T17:11:25;10.63;;;8.20;;
11655;SDS011;5884;43.618;1.438;2023-03-01T17:13:52;9.70;;;7.67;;
11655;SDS011;5884;43.618;1.438;2023-03-01T17:16:21;8.50;;;6.80;;
11655;SDS011;5884;43.618;1.438;2023-03-01T17:18:49;10.93;;;7.63;;
11655;SDS011;5884;43.618;1.438;2023-03-01T17:21:16;10.23;;;8.00;;
11655;SDS011;5884;43.618;1.438;2023-03-01T17:23:44;11.97;;;7.93;;
11655;SDS011;5884;43.618;1.438;2023-03-01T17:26:14;10.20;;;8.50;;
11655;SDS011;5884;43.618;1.438;2023-03-01T17:28:41;10.20;;;8.47;;
11655;SDS011;5884;43.618;1.438;2023-03-01T17:31:09;11.63;;;9.00;;
11655;SDS011;5884;43.618;1.438;2023-03-01T17:33:38;11.93;;;8.40;;
11655;SDS011;5884;43.618;1.438;2023-03-01T17:36:05;13.00;;;8.80;;
11655;SDS011;5884;43.618;1.438;2023-03-01T17:38:32;8.67;;;7.43;;
11655;SDS011;5884;43.618;1.438;2023-03-01T17:41:01;10.90;;;7.63;;
11655;SDS011;5884;43.618;1.438;2023-03-01T17:43:28;14.60;;;8.60;;
11655;SDS011;5884;43.618;1.438;2023-03-01T17:45:58;12.73;;;8.10;;
11655;SDS011;5884;43.618;1.438;2023-03-01T17:48:25;11.00;;;8.07;;
11655;SDS011;5884;43.618;1.438;2023-03-01T17:50:54;10.07;;;7.67;;
11655;SDS011;5884;43.618;1.438;2023-03-01T17:53:21;12.87;;;9.23;;
11655;SDS011;5884;43.618;1.438;2023-03-01T17:55:49;12.03;;;8.60;;
11655;SDS011;5884;43.618;1.438;2023-03-01T17:58:25;13.57;;;8.77;;
11655;SDS011;5884;43.618;1.438;2023-03-01T18:00:52;14.50;;;8.70;;
11655;SDS011;5884;43.618;1.438;2023-03-01T18:03:19;9.87;;;8.10;;
11655;SDS011;5884;43.618;1.438;2023-03-01T18:05:46;12.00;;;8.93;;
11655;SDS011;5884;43.618;1.438;2023-03-01T18:08:16;11.20;;;8.80;;
11655;SDS011;5884;43.618;1.438;2023-03-01T18:10:44;14.57;;;8.67;;
11655;SDS011;5884;43.618;1.438;2023-03-01T18:13:11;12.20;;;8.63;;
11655;SDS011;5884;43.618;1.438;2023-03-01T18:15:39;12.77;;;8.97;;
11655;SDS011;5884;43.618;1.438;2023-03-01T18:18:06;12.70;;;8.97;;
11655;SDS011;5884;43.618;1.438;2023-03-01T18:20:33;11.77;;;9.00;;
11655;SDS011;5884;43.618;1.438;2023-03-01T18:23:00;11.40;;;8.77;;
11655;SDS011;5884;43.618;1.438;2023-03-01T18:25:29;12.13;;;9.53;;
11655;SDS011;5884;43.618;1.438;2023-03-01T18:27:56;11.87;;;9.10;;
11655;SDS011;5884;43.618;1.438;2023-03-01T18:30:25;13.23;;;8.67;;
11655;SDS011;5884;43.618;1.438;2023-03-01T18:32:52;12.70;;;9.23;;
11655;SDS011;5884;43.618;1.438;2023-03-01T18:35:20;13.43;;;9.27;;
11655;SDS011;5884;43.618;1.438;2023-03-01T18:37:48;13.03;;;9.27;;
11655;SDS011;5884;43.618;1.438;2023-03-01T18:40:15;11.80;;;9.10;;
11655;SDS011;5884;43.618;1.438;2023-03-01T18:42:44;12.93;;;9.30;;
11655;SDS011;5884;43.618;1.438;2023-03-01T18:45:11;14.30;;;8.80;;
11655;SDS011;5884;43.618;1.438;2023-03-01T18:47:41;15.00;;;9.50;;
11655;SDS011;5884;43.618;1.438;2023-03-01T18:50:08;13.50;;;9.40;;
11655;SDS011;5884;43.618;1.438;2023-03-01T18:52:37;11.13;;;9.10;;
11655;SDS011;5884;43.618;1.438;2023-03-01T18:55:04;13.43;;;9.13;;
11655;SDS011;5884;43.618;1.438;2023-03-01T18:57:32;15.00;;;10.00;;
11655;SDS011;5884;43.618;1.438;2023-03-01T19:00:00;15.43;;;10.00;;
11655;SDS011;5884;43.618;1.438;2023-03-01T19:02:28;15.50;;;11.03;;
11655;SDS011;5884;43.618;1.438;2023-03-01T19:04:55;16.40;;;9.57;;
11655;SDS011;5884;43.618;1.438;2023-03-01T19:07:22;17.33;;;10.40;;
11655;SDS011;5884;43.618;1.438;2023-03-01T19:09:49;13.97;;;10.13;;
11655;SDS011;5884;43.618;1.438;2023-03-01T19:12:17;15.20;;;10.63;;
11655;SDS011;5884;43.618;1.438;2023-03-01T19:14:44;18.37;;;11.47;;
11655;SDS011;5884;43.618;1.438;2023-03-01T19:17:13;15.77;;;11.63;;
11655;SDS011;5884;43.618;1.438;2023-03-01T19:19:41;16.77;;;12.20;;
11655;SDS011;5884;43.618;1.438;2023-03-01T19:22:08;17.87;;;11.27;;
11655;SDS011;5884;43.618;1.438;2023-03-01T19:24:35;19.47;;;12.87;;
11655;SDS011;5884;43.618;1.438;2023-03-01T19:27:02;18.80;;;11.10;;
11655;SDS011;5884;43.618;1.438;2023-03-01T19:29:29;17.53;;;11.10;;
11655;SDS011;5884;43.618;1.438;2023-03-01T19:31:57;15.67;;;11.07;;
11655;SDS011;5884;43.618;1.438;2023-03-01T19:34:25;16.50;;;11.43;;
11655;SDS011;5884;43.618;1.438;2023-03-01T19:36:52;16.47;;;12.00;;
11655;SDS011;5884;43.618;1.438;2023-03-01T19:39:20;16.57;;;11.73;;
11655;SDS011;5884;43.618;1.438;2023-03-01T19:41:47;18.50;;;12.73;;
11655;SDS011;5884;43.618;1.438;2023-03-01T19:44:14;19.67;;;11.87;;
11655;SDS011;5884;43.618;1.438;2023-03-01T19:46:41;14.63;;;10.90;;
11655;SDS011;5884;43.618;1.438;2023-03-01T19:49:09;15.67;;;11.57;;
11655;SDS011;5884;43.618;1.438;2023-03-01T19:51:37;17.23;;;11.00;;
11655;SDS011;5884;43.618;1.438;2023-03-01T19:54:05;16.50;;;12.17;;
11655;SDS011;5884;43.618;1.438;2023-03-01T19:56:33;18.73;;;11.77;;
11655;SDS011;5884;43.618;1.438;2023-03-01T19:59:01;15.93;;;11.60;;
11655;SDS011;5884;43.618;1.438;2023-03-01T20:01:29;19.17;;;13.00;;
11655;SDS011;5884;43.618;1.438;2023-03-01T20:03:58;17.60;;;12.40;;
11655;SDS011;5884;43.618;1.438;2023-03-01T20:06:25;17.77;;;11.57;;
11655;SDS011;5884;43.618;1.438;2023-03-01T20:08:55;20.37;;;12.60;;
11655;SDS011;5884;43.618;1.438;2023-03-01T20:11:22;18.30;;;12.77;;
11655;SDS011;5884;43.618;1.438;2023-03-01T20:13:49;17.37;;;12.00;;
11655;SDS011;5884;43.618;1.438;2023-03-01T20:16:17;16.50;;;11.00;;
11655;SDS011;5884;43.618;1.438;2023-03-01T20:18:46;20.83;;;12.90;;
11655;SDS011;5884;43.618;1.438;2023-03-01T20:21:14;18.67;;;12.87;;
11655;SDS011;5884;43.618;1.438;2023-03-01T20:23:42;21.50;;;13.93;;
11655;SDS011;5884;43.618;1.438;2023-03-01T20:26:11;19.60;;;12.37;;
11655;SDS011;5884;43.618;1.438;2023-03-01T20:28:43;21.03;;;13.23;;
11655;SDS011;5884;43.618;1.438;2023-03-01T20:31:12;20.53;;;13.77;;
11655;SDS011;5884;43.618;1.438;2023-03-01T20:33:41;20.67;;;13.43;;
11655;SDS011;5884;43.618;1.438;2023-03-01T20:36:09;19.33;;;12.33;;
11655;SDS011;5884;43.618;1.438;2023-03-01T20:38:37;17.23;;;12.30;;
11655;SDS011;5884;43.618;1.438;2023-03-01T20:41:05;17.57;;;11.27;;
11655;SDS011;5884;43.618;1.438;2023-03-01T20:43:36;16.33;;;11.27;;
11655;SDS011;5884;43.618;1.438;2023-03-01T20:46:04;18.03;;;12.10;;
11655;SDS011;5884;43.618;1.438;2023-03-01T20:48:32;18.00;;;11.37;;
11655;SDS011;5884;43.618;1.438;2023-03-01T20:51:03;17.73;;;11.70;;
11655;SDS011;5884;43.618;1.438;2023-03-01T20:53:31;15.63;;;11.17;;
11655;SDS011;5884;43.618;1.438;2023-03-01T20:56:00;16.60;;;12.10;;
11655;SDS011;5884;43.618;1.438;2023-03-01T20:58:28;21.17;;;14.03;;
11655;SDS011;5884;43.618;1.438;2023-03-01T21:00:58;20.13;;;13.97;;
11655;SDS011;5884;43.618;1.438;2023-03-01T21:03:25;19.33;;;13.20;;
11655;SDS011;5884;43.618;1.438;2023-03-01T21:05:53;17.60;;;12.27;;
11655;SDS011;5884;43.618;1.438;2023-03-01T21:08:21;16.50;;;11.53;;
11655;SDS011;5884;43.618;1.438;2023-03-01T21:10:49;15.77;;;11.10;;
11655;SDS011;5884;43.618;1.438;2023-03-01T21:13:17;16.50;;;11.23;;
11655;SDS011;5884;43.618;1.438;2023-03-01T21:15:50;20.07;;;11.17;;